sensor_id;sensor_type;location;lat;lon;timestamp;P1;durP1;ratioP1;P2;durP2;ratioP2
52188;SDS011;38162;45.926;13.608;2022-12-10T00:00:02;17.92;;;14.80;;
52188;SDS011;38162;45.926;13.608;2022-12-10T00:02:29;18.15;;;15.05;;
52188;SDS011;38162;45.926;13.608;2022-12-10T00:04:55;19.52;;;14.95;;
52188;SDS011;38162;45.926;13.608;2022-12-10T00:07:20;24.75;;;18.17;;
52188;SDS011;38162;45.926;13.608;2022-12-10T00:09:46;25.00;;;17.20;;
52188;SDS011;38162;45.926;13.608;2022-12-10T00:12:12;22.63;;;16.17;;
52188;SDS011;38162;45.926;13.608;2022-12-10T00:14:37;21.77;;;16.13;;
52188;SDS011;38162;45.926;13.608;2022-12-10T00:17:03;21.93;;;16.97;;
52188;SDS011;38162;45.926;13.608;2022-12-10T00:19:28;20.52;;;15.57;;
52188;SDS011;38162;45.926;13.608;2022-12-10T00:21:54;16.55;;;14.25;;
52188;SDS011;38162;45.926;13.608;2022-12-10T00:24:20;18.40;;;13.07;;
52188;SDS011;38162;45.926;13.608;2022-12-10T00:26:45;24.70;;;15.57;;
52188;SDS011;38162;45.926;13.608;2022-12-10T00:29:11;19.17;;;13.97;;
52188;SDS011;38162;45.926;13.608;2022-12-10T00:31:37;19.42;;;15.10;;
52188;SDS011;38162;45.926;13.608;2022-12-10T00:34:05;19.33;;;15.05;;
52188;SDS011;38162;45.926;13.608;2022-12-10T00:36:33;23.42;;;14.70;;
52188;SDS011;38162;45.926;13.608;2022-12-10T00:39:02;20.80;;;15.88;;
52188;SDS011;38162;45.926;13.608;2022-12-10T00:41:28;14.82;;;12.77;;
52188;SDS011;38162;45.926;13.608;2022-12-10T00:43:54;20.00;;;14.90;;
52188;SDS011;38162;45.926;13.608;2022-12-10T00:46:20;18.17;;;14.95;;
52188;SDS011;38162;45.926;13.608;2022-12-10T00:48:45;21.38;;;13.45;;
52188;SDS011;38162;45.926;13.608;2022-12-10T00:51:13;18.00;;;14.00;;
52188;SDS011;38162;45.926;13.608;2022-12-10T00:53:41;16.75;;;13.77;;
52188;SDS011;38162;45.926;13.608;2022-12-10T00:56:08;18.58;;;15.35;;
52188;SDS011;38162;45.926;13.608;2022-12-10T00:58:35;18.73;;;14.65;;
52188;SDS011;38162;45.926;13.608;2022-12-10T01:01:12;17.48;;;14.52;;
52188;SDS011;38162;45.926;13.608;2022-12-10T01:03:46;17.08;;;14.10;;
52188;SDS011;38162;45.926;13.608;2022-12-10T01:06:15;17.17;;;15.00;;
52188;SDS011;38162;45.926;13.608;2022-12-10T01:08:43;15.27;;;13.02;;
52188;SDS011;38162;45.926;13.608;2022-12-10T01:11:10;18.45;;;15.27;;
52188;SDS011;38162;45.926;13.608;2022-12-10T01:13:37;17.35;;;14.30;;
52188;SDS011;38162;45.926;13.608;2022-12-10T01:16:04;16.58;;;14.05;;
52188;SDS011;38162;45.926;13.608;2022-12-10T01:18:31;16.35;;;14.20;;
52188;SDS011;38162;45.926;13.608;2022-12-10T01:21:00;19.20;;;14.75;;
52188;SDS011;38162;45.926;13.608;2022-12-10T01:23:31;16.13;;;12.73;;
52188;SDS011;38162;45.926;13.608;2022-12-10T01:26:02;18.10;;;12.65;;
52188;SDS011;38162;45.926;13.608;2022-12-10T01:28:31;17.33;;;13.80;;
52188;SDS011;38162;45.926;13.608;2022-12-10T01:31:02;17.05;;;12.88;;
52188;SDS011;38162;45.926;13.608;2022-12-10T01:33:29;15.63;;;13.40;;
52188;SDS011;38162;45.926;13.608;2022-12-10T01:35:56;16.55;;;13.48;;
52188;SDS011;38162;45.926;13.608;2022-12-10T01:38:26;17.92;;;13.77;;
52188;SDS011;38162;45.926;13.608;2022-12-10T01:40:51;18.05;;;13.93;;
52188;SDS011;38162;45.926;13.608;2022-12-10T01:43:17;18.67;;;14.13;;
52188;SDS011;38162;45.926;13.608;2022-12-10T01:45:43;14.60;;;12.52;;
52188;SDS011;38162;45.926;13.608;2022-12-10T01:48:09;23.90;;;14.45;;
52188;SDS011;38162;45.926;13.608;2022-12-10T01:50:35;15.93;;;11.98;;
52188;SDS011;38162;45.926;13.608;2022-12-10T01:53:01;20.15;;;14.15;;
52188;SDS011;38162;45.926;13.608;2022-12-10T01:58:22;19.38;;;14.18;;
52188;SDS011;38162;45.926;13.608;2022-12-10T02:00:54;21.30;;;14.07;;
52188;SDS011;38162;45.926;13.608;2022-12-10T02:09:42;20.80;;;14.20;;
52188;SDS011;38162;45.926;13.608;2022-12-10T02:15:27;18.20;;;14.05;;
52188;SDS011;38162;45.926;13.608;2022-12-10T02:17:58;22.48;;;15.35;;
52188;SDS011;38162;45.926;13.608;2022-12-10T02:20:32;23.38;;;16.35;;
52188;SDS011;38162;45.926;13.608;2022-12-10T02:23:27;23.77;;;16.50;;
52188;SDS011;38162;45.926;13.608;2022-12-10T02:26:11;32.45;;;20.63;;
52188;SDS011;38162;45.926;13.608;2022-12-10T02:31:41;33.47;;;22.83;;
52188;SDS011;38162;45.926;13.608;2022-12-10T02:34:10;37.90;;;24.15;;
52188;SDS011;38162;45.926;13.608;2022-12-10T02:36:38;38.25;;;23.77;;
52188;SDS011;38162;45.926;13.608;2022-12-10T02:39:07;34.28;;;23.17;;
52188;SDS011;38162;45.926;13.608;2022-12-10T02:41:43;42.85;;;24.95;;
52188;SDS011;38162;45.926;13.608;2022-12-10T02:44:16;45.05;;;25.63;;
52188;SDS011;38162;45.926;13.608;2022-12-10T02:46:44;59.47;;;28.75;;
52188;SDS011;38162;45.926;13.608;2022-12-10T02:49:13;68.63;;;29.13;;
52188;SDS011;38162;45.926;13.608;2022-12-10T02:51:40;57.90;;;30.95;;
52188;SDS011;38162;45.926;13.608;2022-12-10T02:54:07;49.47;;;28.27;;
52188;SDS011;38162;45.926;13.608;2022-12-10T02:57:17;41.65;;;26.60;;
52188;SDS011;38162;45.926;13.608;2022-12-10T03:00:09;43.50;;;27.00;;
52188;SDS011;38162;45.926;13.608;2022-12-10T03:11:18;55.08;;;30.52;;
52188;SDS011;38162;45.926;13.608;2022-12-10T03:13:53;59.53;;;31.13;;
52188;SDS011;38162;45.926;13.608;2022-12-10T03:16:20;44.17;;;28.67;;
52188;SDS011;38162;45.926;13.608;2022-12-10T03:18:49;44.97;;;28.00;;
52188;SDS011;38162;45.926;13.608;2022-12-10T03:21:20;42.17;;;27.95;;
52188;SDS011;38162;45.926;13.608;2022-12-10T03:23:47;45.97;;;27.08;;
52188;SDS011;38162;45.926;13.608;2022-12-10T03:26:13;43.53;;;27.45;;
52188;SDS011;38162;45.926;13.608;2022-12-10T03:28:41;40.00;;;25.63;;
52188;SDS011;38162;45.926;13.608;2022-12-10T03:31:15;46.47;;;28.08;;
52188;SDS011;38162;45.926;13.608;2022-12-10T03:33:42;43.53;;;27.77;;
52188;SDS011;38162;45.926;13.608;2022-12-10T03:36:10;46.75;;;28.55;;
52188;SDS011;38162;45.926;13.608;2022-12-10T03:38:36;57.97;;;32.50;;
52188;SDS011;38162;45.926;13.608;2022-12-10T03:41:03;59.13;;;33.85;;
52188;SDS011;38162;45.926;13.608;2022-12-10T03:43:29;69.25;;;35.97;;
52188;SDS011;38162;45.926;13.608;2022-12-10T03:45:55;59.58;;;33.83;;
52188;SDS011;38162;45.926;13.608;2022-12-10T03:48:20;57.63;;;32.97;;
52188;SDS011;38162;45.926;13.608;2022-12-10T03:50:46;56.38;;;32.75;;
52188;SDS011;38162;45.926;13.608;2022-12-10T03:53:11;54.67;;;30.92;;
52188;SDS011;38162;45.926;13.608;2022-12-10T03:55:37;51.25;;;30.25;;
52188;SDS011;38162;45.926;13.608;2022-12-10T03:58:03;55.42;;;30.23;;
52188;SDS011;38162;45.926;13.608;2022-12-10T04:00:29;56.67;;;31.58;;
52188;SDS011;38162;45.926;13.608;2022-12-10T04:02:55;54.35;;;31.60;;
52188;SDS011;38162;45.926;13.608;2022-12-10T04:05:20;56.05;;;30.27;;
52188;SDS011;38162;45.926;13.608;2022-12-10T04:07:46;51.30;;;29.48;;
52188;SDS011;38162;45.926;13.608;2022-12-10T04:10:12;55.95;;;34.00;;
52188;SDS011;38162;45.926;13.608;2022-12-10T04:12:37;50.53;;;30.52;;
52188;SDS011;38162;45.926;13.608;2022-12-10T04:15:03;52.88;;;28.67;;
52188;SDS011;38162;45.926;13.608;2022-12-10T04:17:48;46.67;;;26.48;;
52188;SDS011;38162;45.926;13.608;2022-12-10T04:20:14;39.75;;;23.70;;
52188;SDS011;38162;45.926;13.608;2022-12-10T04:22:58;43.03;;;23.05;;
52188;SDS011;38162;45.926;13.608;2022-12-10T04:25:42;37.80;;;22.88;;
52188;SDS011;38162;45.926;13.608;2022-12-10T04:28:26;31.83;;;20.65;;
52188;SDS011;38162;45.926;13.608;2022-12-10T04:30:52;35.00;;;20.88;;
52188;SDS011;38162;45.926;13.608;2022-12-10T04:33:18;38.47;;;20.77;;
52188;SDS011;38162;45.926;13.608;2022-12-10T04:35:43;36.53;;;20.55;;
52188;SDS011;38162;45.926;13.608;2022-12-10T04:38:09;40.97;;;20.95;;
52188;SDS011;38162;45.926;13.608;2022-12-10T04:40:35;35.13;;;19.73;;
52188;SDS011;38162;45.926;13.608;2022-12-10T04:43:00;35.20;;;18.88;;
52188;SDS011;38162;45.926;13.608;2022-12-10T04:45:26;35.15;;;19.48;;
52188;SDS011;38162;45.926;13.608;2022-12-10T04:47:52;33.80;;;18.65;;
52188;SDS011;38162;45.926;13.608;2022-12-10T04:50:17;33.40;;;18.25;;
52188;SDS011;38162;45.926;13.608;2022-12-10T04:52:43;32.50;;;17.52;;
52188;SDS011;38162;45.926;13.608;2022-12-10T04:55:08;28.23;;;17.13;;
52188;SDS011;38162;45.926;13.608;2022-12-10T04:57:34;31.13;;;16.08;;
52188;SDS011;38162;45.926;13.608;2022-12-10T05:00:00;31.15;;;17.33;;
52188;SDS011;38162;45.926;13.608;2022-12-10T05:02:25;34.75;;;18.80;;
52188;SDS011;38162;45.926;13.608;2022-12-10T05:04:51;33.67;;;18.30;;
52188;SDS011;38162;45.926;13.608;2022-12-10T05:07:17;38.40;;;22.40;;
52188;SDS011;38162;45.926;13.608;2022-12-10T05:09:42;40.75;;;23.15;;
52188;SDS011;38162;45.926;13.608;2022-12-10T05:12:08;39.80;;;22.98;;
52188;SDS011;38162;45.926;13.608;2022-12-10T05:14:34;37.05;;;21.98;;
52188;SDS011;38162;45.926;13.608;2022-12-10T05:16:59;38.47;;;22.67;;
52188;SDS011;38162;45.926;13.608;2022-12-10T05:19:25;43.67;;;23.30;;
52188;SDS011;38162;45.926;13.608;2022-12-10T05:21:51;42.28;;;22.33;;
52188;SDS011;38162;45.926;13.608;2022-12-10T05:24:35;45.13;;;24.85;;
52188;SDS011;38162;45.926;13.608;2022-12-10T05:27:01;50.38;;;26.77;;
52188;SDS011;38162;45.926;13.608;2022-12-10T05:29:27;53.55;;;28.05;;
52188;SDS011;38162;45.926;13.608;2022-12-10T05:31:53;56.67;;;27.90;;
52188;SDS011;38162;45.926;13.608;2022-12-10T05:34:19;55.17;;;27.38;;
52188;SDS011;38162;45.926;13.608;2022-12-10T05:36:45;48.15;;;25.48;;
52188;SDS011;38162;45.926;13.608;2022-12-10T05:39:10;49.90;;;26.70;;
52188;SDS011;38162;45.926;13.608;2022-12-10T05:41:37;55.63;;;28.27;;
52188;SDS011;38162;45.926;13.608;2022-12-10T05:44:04;60.53;;;29.80;;
52188;SDS011;38162;45.926;13.608;2022-12-10T05:46:31;49.50;;;28.40;;
52188;SDS011;38162;45.926;13.608;2022-12-10T05:48:59;55.63;;;29.42;;
52188;SDS011;38162;45.926;13.608;2022-12-10T05:51:27;53.42;;;28.20;;
52188;SDS011;38162;45.926;13.608;2022-12-10T05:53:55;52.53;;;29.48;;
52188;SDS011;38162;45.926;13.608;2022-12-10T05:56:23;54.00;;;27.08;;
52188;SDS011;38162;45.926;13.608;2022-12-10T05:58:50;47.78;;;26.33;;
52188;SDS011;38162;45.926;13.608;2022-12-10T06:01:22;49.70;;;27.08;;
52188;SDS011;38162;45.926;13.608;2022-12-10T06:03:49;53.10;;;27.00;;
52188;SDS011;38162;45.926;13.608;2022-12-10T06:06:22;48.35;;;25.95;;
52188;SDS011;38162;45.926;13.608;2022-12-10T06:08:50;50.80;;;26.58;;
52188;SDS011;38162;45.926;13.608;2022-12-10T06:11:16;50.72;;;25.65;;
52188;SDS011;38162;45.926;13.608;2022-12-10T06:13:43;50.95;;;26.52;;
52188;SDS011;38162;45.926;13.608;2022-12-10T06:16:11;50.40;;;25.65;;
52188;SDS011;38162;45.926;13.608;2022-12-10T06:18:38;45.72;;;24.27;;
52188;SDS011;38162;45.926;13.608;2022-12-10T06:21:08;42.42;;;23.45;;
52188;SDS011;38162;45.926;13.608;2022-12-10T06:23:36;40.97;;;24.20;;
52188;SDS011;38162;45.926;13.608;2022-12-10T06:26:10;39.22;;;23.30;;
52188;SDS011;38162;45.926;13.608;2022-12-10T06:28:37;57.47;;;29.45;;
52188;SDS011;38162;45.926;13.608;2022-12-10T06:31:04;50.22;;;28.30;;
52188;SDS011;38162;45.926;13.608;2022-12-10T06:33:30;46.95;;;26.48;;
52188;SDS011;38162;45.926;13.608;2022-12-10T06:35:56;44.60;;;25.02;;
52188;SDS011;38162;45.926;13.608;2022-12-10T06:38:21;43.60;;;24.52;;
52188;SDS011;38162;45.926;13.608;2022-12-10T06:40:47;39.45;;;24.80;;
52188;SDS011;38162;45.926;13.608;2022-12-10T06:43:13;43.83;;;24.65;;
52188;SDS011;38162;45.926;13.608;2022-12-10T06:45:40;43.80;;;25.00;;
52188;SDS011;38162;45.926;13.608;2022-12-10T06:48:06;41.40;;;22.95;;
52188;SDS011;38162;45.926;13.608;2022-12-10T06:50:32;37.00;;;22.33;;
52188;SDS011;38162;45.926;13.608;2022-12-10T06:52:59;42.80;;;24.08;;
52188;SDS011;38162;45.926;13.608;2022-12-10T06:55:25;51.83;;;26.17;;
52188;SDS011;38162;45.926;13.608;2022-12-10T06:57:53;43.80;;;24.15;;
52188;SDS011;38162;45.926;13.608;2022-12-10T07:00:19;49.83;;;25.83;;
52188;SDS011;38162;45.926;13.608;2022-12-10T07:02:46;47.35;;;24.80;;
52188;SDS011;38162;45.926;13.608;2022-12-10T07:05:12;53.50;;;25.25;;
52188;SDS011;38162;45.926;13.608;2022-12-10T07:07:38;53.65;;;29.38;;
52188;SDS011;38162;45.926;13.608;2022-12-10T07:10:04;74.80;;;29.80;;
52188;SDS011;38162;45.926;13.608;2022-12-10T07:12:30;52.35;;;29.50;;
52188;SDS011;38162;45.926;13.608;2022-12-10T07:14:56;53.47;;;27.23;;
52188;SDS011;38162;45.926;13.608;2022-12-10T07:17:21;50.42;;;27.70;;
52188;SDS011;38162;45.926;13.608;2022-12-10T07:19:47;80.03;;;29.63;;
52188;SDS011;38162;45.926;13.608;2022-12-10T07:22:13;97.32;;;30.27;;
52188;SDS011;38162;45.926;13.608;2022-12-10T07:24:38;51.20;;;29.27;;
52188;SDS011;38162;45.926;13.608;2022-12-10T07:27:05;70.68;;;29.73;;
52188;SDS011;38162;45.926;13.608;2022-12-10T07:29:31;97.60;;;28.33;;
52188;SDS011;38162;45.926;13.608;2022-12-10T07:31:57;62.93;;;27.57;;
52188;SDS011;38162;45.926;13.608;2022-12-10T07:34:23;60.30;;;28.40;;
52188;SDS011;38162;45.926;13.608;2022-12-10T07:36:49;117.78;;;27.60;;
52188;SDS011;38162;45.926;13.608;2022-12-10T07:39:14;53.53;;;28.58;;
52188;SDS011;38162;45.926;13.608;2022-12-10T07:41:51;105.40;;;28.25;;
52188;SDS011;38162;45.926;13.608;2022-12-10T07:44:21;49.63;;;27.10;;
52188;SDS011;38162;45.926;13.608;2022-12-10T07:46:49;60.15;;;26.38;;
52188;SDS011;38162;45.926;13.608;2022-12-10T07:49:16;43.40;;;25.83;;
52188;SDS011;38162;45.926;13.608;2022-12-10T07:51:46;41.45;;;25.25;;
52188;SDS011;38162;45.926;13.608;2022-12-10T07:54:12;44.65;;;24.17;;
52188;SDS011;38162;45.926;13.608;2022-12-10T07:56:38;42.45;;;24.95;;
52188;SDS011;38162;45.926;13.608;2022-12-10T07:59:04;40.90;;;24.15;;
52188;SDS011;38162;45.926;13.608;2022-12-10T08:01:31;46.60;;;25.90;;
52188;SDS011;38162;45.926;13.608;2022-12-10T08:03:57;41.08;;;24.67;;
52188;SDS011;38162;45.926;13.608;2022-12-10T08:06:23;40.13;;;23.77;;
52188;SDS011;38162;45.926;13.608;2022-12-10T08:08:49;42.42;;;24.23;;
52188;SDS011;38162;45.926;13.608;2022-12-10T08:11:16;37.33;;;22.52;;
52188;SDS011;38162;45.926;13.608;2022-12-10T08:13:43;35.20;;;21.85;;
52188;SDS011;38162;45.926;13.608;2022-12-10T08:16:13;37.45;;;22.90;;
52188;SDS011;38162;45.926;13.608;2022-12-10T08:18:41;38.35;;;23.98;;
52188;SDS011;38162;45.926;13.608;2022-12-10T08:21:08;44.17;;;24.45;;
52188;SDS011;38162;45.926;13.608;2022-12-10T08:23:38;45.17;;;25.23;;
52188;SDS011;38162;45.926;13.608;2022-12-10T08:26:05;48.35;;;25.65;;
52188;SDS011;38162;45.926;13.608;2022-12-10T08:28:32;54.83;;;27.40;;
52188;SDS011;38162;45.926;13.608;2022-12-10T08:30:59;55.65;;;28.67;;
52188;SDS011;38162;45.926;13.608;2022-12-10T08:33:25;54.17;;;27.63;;
52188;SDS011;38162;45.926;13.608;2022-12-10T08:35:51;53.60;;;27.90;;
52188;SDS011;38162;45.926;13.608;2022-12-10T08:38:16;51.25;;;26.90;;
52188;SDS011;38162;45.926;13.608;2022-12-10T08:40:42;54.70;;;28.25;;
52188;SDS011;38162;45.926;13.608;2022-12-10T08:43:09;54.25;;;26.55;;
52188;SDS011;38162;45.926;13.608;2022-12-10T08:45:34;48.03;;;25.67;;
52188;SDS011;38162;45.926;13.608;2022-12-10T08:48:01;43.05;;;21.92;;
52188;SDS011;38162;45.926;13.608;2022-12-10T08:50:28;36.63;;;20.65;;
52188;SDS011;38162;45.926;13.608;2022-12-10T08:52:54;36.83;;;20.75;;
52188;SDS011;38162;45.926;13.608;2022-12-10T08:55:19;32.97;;;18.50;;
52188;SDS011;38162;45.926;13.608;2022-12-10T08:57:45;31.70;;;19.20;;
52188;SDS011;38162;45.926;13.608;2022-12-10T09:00:11;42.35;;;20.73;;
52188;SDS011;38162;45.926;13.608;2022-12-10T09:02:38;31.70;;;17.08;;
52188;SDS011;38162;45.926;13.608;2022-12-10T09:05:04;32.30;;;18.27;;
52188;SDS011;38162;45.926;13.608;2022-12-10T09:07:31;37.13;;;18.77;;
52188;SDS011;38162;45.926;13.608;2022-12-10T09:09:56;29.48;;;18.17;;
52188;SDS011;38162;45.926;13.608;2022-12-10T09:12:22;28.48;;;17.75;;
52188;SDS011;38162;45.926;13.608;2022-12-10T09:14:48;28.15;;;18.13;;
52188;SDS011;38162;45.926;13.608;2022-12-10T09:17:14;36.42;;;19.83;;
52188;SDS011;38162;45.926;13.608;2022-12-10T09:19:40;34.10;;;21.33;;
52188;SDS011;38162;45.926;13.608;2022-12-10T09:22:05;32.15;;;19.52;;
52188;SDS011;38162;45.926;13.608;2022-12-10T09:24:31;33.38;;;19.98;;
52188;SDS011;38162;45.926;13.608;2022-12-10T09:26:56;29.88;;;19.40;;
52188;SDS011;38162;45.926;13.608;2022-12-10T09:29:22;28.20;;;18.65;;
52188;SDS011;38162;45.926;13.608;2022-12-10T09:31:51;28.73;;;18.38;;
52188;SDS011;38162;45.926;13.608;2022-12-10T09:34:17;32.97;;;20.35;;
52188;SDS011;38162;45.926;13.608;2022-12-10T09:36:43;30.38;;;18.23;;
52188;SDS011;38162;45.926;13.608;2022-12-10T09:39:09;22.88;;;16.70;;
52188;SDS011;38162;45.926;13.608;2022-12-10T09:44:07;16.15;;;12.38;;
52188;SDS011;38162;45.926;13.608;2022-12-10T09:49:32;17.83;;;11.43;;
52188;SDS011;38162;45.926;13.608;2022-12-10T09:52:02;15.93;;;11.85;;
52188;SDS011;38162;45.926;13.608;2022-12-10T09:54:31;13.35;;;9.88;;
52188;SDS011;38162;45.926;13.608;2022-12-10T09:56:59;15.23;;;10.20;;
52188;SDS011;38162;45.926;13.608;2022-12-10T10:02:20;13.00;;;9.60;;
52188;SDS011;38162;45.926;13.608;2022-12-10T10:04:54;13.95;;;10.10;;
52188;SDS011;38162;45.926;13.608;2022-12-10T10:10:10;13.25;;;9.98;;
52188;SDS011;38162;45.926;13.608;2022-12-10T10:12:45;16.67;;;11.38;;
52188;SDS011;38162;45.926;13.608;2022-12-10T10:15:16;15.10;;;11.98;;
52188;SDS011;38162;45.926;13.608;2022-12-10T10:17:45;15.95;;;11.68;;
52188;SDS011;38162;45.926;13.608;2022-12-10T10:20:14;16.42;;;13.00;;
52188;SDS011;38162;45.926;13.608;2022-12-10T10:22:40;15.60;;;12.45;;
52188;SDS011;38162;45.926;13.608;2022-12-10T10:25:16;18.75;;;13.35;;
52188;SDS011;38162;45.926;13.608;2022-12-10T10:27:43;12.93;;;10.63;;
52188;SDS011;38162;45.926;13.608;2022-12-10T10:30:13;14.05;;;10.38;;
52188;SDS011;38162;45.926;13.608;2022-12-10T10:35:09;14.52;;;10.38;;
52188;SDS011;38162;45.926;13.608;2022-12-10T10:37:59;13.35;;;10.45;;
52188;SDS011;38162;45.926;13.608;2022-12-10T10:40:46;16.90;;;10.73;;
52188;SDS011;38162;45.926;13.608;2022-12-10T10:43:18;16.02;;;11.00;;
52188;SDS011;38162;45.926;13.608;2022-12-10T10:48:23;20.02;;;15.48;;
52188;SDS011;38162;45.926;13.608;2022-12-10T10:53:29;25.67;;;18.67;;
52188;SDS011;38162;45.926;13.608;2022-12-10T10:59:00;28.05;;;19.17;;
52188;SDS011;38162;45.926;13.608;2022-12-10T11:04:18;28.75;;;20.77;;
52188;SDS011;38162;45.926;13.608;2022-12-10T11:06:48;30.42;;;22.48;;
52188;SDS011;38162;45.926;13.608;2022-12-10T11:09:21;33.25;;;23.50;;
52188;SDS011;38162;45.926;13.608;2022-12-10T11:11:52;31.08;;;22.38;;
52188;SDS011;38162;45.926;13.608;2022-12-10T11:22:49;8.38;;;3.95;;
52188;SDS011;38162;45.926;13.608;2022-12-10T11:25:23;6.15;;;4.60;;
52188;SDS011;38162;45.926;13.608;2022-12-10T11:28:14;5.95;;;3.92;;
52188;SDS011;38162;45.926;13.608;2022-12-10T11:30:53;5.07;;;3.80;;
52188;SDS011;38162;45.926;13.608;2022-12-10T11:38:54;5.75;;;4.00;;
52188;SDS011;38162;45.926;13.608;2022-12-10T11:54:19;6.70;;;3.08;;
52188;SDS011;38162;45.926;13.608;2022-12-10T11:57:13;3.70;;;2.42;;
52188;SDS011;38162;45.926;13.608;2022-12-10T12:00:13;3.53;;;2.58;;
52188;SDS011;38162;45.926;13.608;2022-12-10T12:13:05;3.53;;;1.27;;
52188;SDS011;38162;45.926;13.608;2022-12-10T12:15:37;2.63;;;1.50;;
52188;SDS011;38162;45.926;13.608;2022-12-10T12:18:32;5.80;;;1.83;;
52188;SDS011;38162;45.926;13.608;2022-12-10T12:21:13;4.18;;;1.60;;
52188;SDS011;38162;45.926;13.608;2022-12-10T12:23:58;2.05;;;1.20;;
52188;SDS011;38162;45.926;13.608;2022-12-10T12:26:32;3.17;;;1.35;;
52188;SDS011;38162;45.926;13.608;2022-12-10T12:29:19;2.17;;;1.30;;
52188;SDS011;38162;45.926;13.608;2022-12-10T12:31:56;2.30;;;1.45;;
52188;SDS011;38162;45.926;13.608;2022-12-10T12:34:37;3.67;;;1.27;;
52188;SDS011;38162;45.926;13.608;2022-12-10T12:37:17;1.70;;;1.10;;
52188;SDS011;38162;45.926;13.608;2022-12-10T12:42:53;2.25;;;1.20;;
52188;SDS011;38162;45.926;13.608;2022-12-10T12:45:42;4.35;;;1.02;;
52188;SDS011;38162;45.926;13.608;2022-12-10T12:53:25;3.00;;;1.23;;
52188;SDS011;38162;45.926;13.608;2022-12-10T12:58:59;2.78;;;1.33;;
52188;SDS011;38162;45.926;13.608;2022-12-10T13:04:01;2.42;;;1.25;;
52188;SDS011;38162;45.926;13.608;2022-12-10T13:06:29;4.28;;;1.58;;
52188;SDS011;38162;45.926;13.608;2022-12-10T13:14:30;2.75;;;1.75;;
52188;SDS011;38162;45.926;13.608;2022-12-10T13:16:59;2.90;;;1.85;;
52188;SDS011;38162;45.926;13.608;2022-12-10T13:19:30;4.93;;;1.83;;
52188;SDS011;38162;45.926;13.608;2022-12-10T13:22:01;3.58;;;2.10;;
52188;SDS011;38162;45.926;13.608;2022-12-10T13:37:35;5.03;;;2.75;;
52188;SDS011;38162;45.926;13.608;2022-12-10T13:46:31;3.92;;;2.10;;
52188;SDS011;38162;45.926;13.608;2022-12-10T13:49:00;4.07;;;2.20;;
52188;SDS011;38162;45.926;13.608;2022-12-10T14:04:57;3.90;;;2.33;;
52188;SDS011;38162;45.926;13.608;2022-12-10T14:07:39;3.63;;;2.10;;
52188;SDS011;38162;45.926;13.608;2022-12-10T14:10:13;2.60;;;2.00;;
52188;SDS011;38162;45.926;13.608;2022-12-10T14:12:42;5.20;;;2.65;;
52188;SDS011;38162;45.926;13.608;2022-12-10T14:18:12;2.30;;;1.70;;
52188;SDS011;38162;45.926;13.608;2022-12-10T14:20:41;3.13;;;1.58;;
52188;SDS011;38162;45.926;13.608;2022-12-10T14:23:21;3.10;;;1.80;;
52188;SDS011;38162;45.926;13.608;2022-12-10T14:25:57;3.15;;;2.03;;
52188;SDS011;38162;45.926;13.608;2022-12-10T14:28:23;5.22;;;1.85;;
52188;SDS011;38162;45.926;13.608;2022-12-10T14:30:49;3.47;;;1.70;;
52188;SDS011;38162;45.926;13.608;2022-12-10T14:33:17;2.40;;;1.70;;
52188;SDS011;38162;45.926;13.608;2022-12-10T14:35:47;4.73;;;2.60;;
52188;SDS011;38162;45.926;13.608;2022-12-10T14:38:20;3.20;;;2.13;;
52188;SDS011;38162;45.926;13.608;2022-12-10T14:40:57;4.13;;;2.30;;
52188;SDS011;38162;45.926;13.608;2022-12-10T14:43:30;4.00;;;2.50;;
52188;SDS011;38162;45.926;13.608;2022-12-10T14:46:02;4.13;;;3.07;;
52188;SDS011;38162;45.926;13.608;2022-12-10T14:48:29;5.23;;;2.73;;
52188;SDS011;38162;45.926;13.608;2022-12-10T14:50:56;5.00;;;2.70;;
52188;SDS011;38162;45.926;13.608;2022-12-10T14:53:29;4.47;;;2.83;;
52188;SDS011;38162;45.926;13.608;2022-12-10T14:55:57;4.10;;;2.70;;
52188;SDS011;38162;45.926;13.608;2022-12-10T15:00:57;3.63;;;2.45;;
52188;SDS011;38162;45.926;13.608;2022-12-10T15:03:27;6.90;;;2.42;;
52188;SDS011;38162;45.926;13.608;2022-12-10T15:05:57;4.97;;;2.60;;
52188;SDS011;38162;45.926;13.608;2022-12-10T15:08:25;3.13;;;1.97;;
52188;SDS011;38162;45.926;13.608;2022-12-10T15:10:54;2.53;;;1.60;;
52188;SDS011;38162;45.926;13.608;2022-12-10T15:13:40;2.40;;;1.47;;
52188;SDS011;38162;45.926;13.608;2022-12-10T15:16:19;4.82;;;1.70;;
52188;SDS011;38162;45.926;13.608;2022-12-10T15:18:54;2.00;;;1.37;;
52188;SDS011;38162;45.926;13.608;2022-12-10T15:21:23;2.23;;;1.57;;
52188;SDS011;38162;45.926;13.608;2022-12-10T15:23:50;2.20;;;1.43;;
52188;SDS011;38162;45.926;13.608;2022-12-10T15:26:32;2.23;;;1.50;;
52188;SDS011;38162;45.926;13.608;2022-12-10T15:29:14;2.20;;;1.23;;
52188;SDS011;38162;45.926;13.608;2022-12-10T15:31:58;1.70;;;1.20;;
52188;SDS011;38162;45.926;13.608;2022-12-10T15:34:26;2.30;;;1.10;;
52188;SDS011;38162;45.926;13.608;2022-12-10T15:36:55;2.43;;;1.20;;
52188;SDS011;38162;45.926;13.608;2022-12-10T15:39:27;3.55;;;1.60;;
52188;SDS011;38162;45.926;13.608;2022-12-10T15:42:06;2.93;;;1.73;;
52188;SDS011;38162;45.926;13.608;2022-12-10T15:44:37;3.57;;;1.73;;
52188;SDS011;38162;45.926;13.608;2022-12-10T15:49:55;5.77;;;4.10;;
52188;SDS011;38162;45.926;13.608;2022-12-10T15:54:50;2.27;;;1.40;;
52188;SDS011;38162;45.926;13.608;2022-12-10T15:57:27;1.60;;;1.10;;
52188;SDS011;38162;45.926;13.608;2022-12-10T15:59:57;2.10;;;0.93;;
52188;SDS011;38162;45.926;13.608;2022-12-10T16:04:52;6.10;;;1.80;;
52188;SDS011;38162;45.926;13.608;2022-12-10T16:07:18;6.30;;;2.97;;
52188;SDS011;38162;45.926;13.608;2022-12-10T16:09:45;3.07;;;2.00;;
52188;SDS011;38162;45.926;13.608;2022-12-10T16:12:11;2.70;;;1.63;;
52188;SDS011;38162;45.926;13.608;2022-12-10T16:14:38;1.53;;;1.23;;
52188;SDS011;38162;45.926;13.608;2022-12-10T16:17:06;2.77;;;1.27;;
52188;SDS011;38162;45.926;13.608;2022-12-10T16:19:32;1.80;;;1.20;;
52188;SDS011;38162;45.926;13.608;2022-12-10T16:21:58;2.10;;;1.43;;
52188;SDS011;38162;45.926;13.608;2022-12-10T16:24:24;2.33;;;1.30;;
52188;SDS011;38162;45.926;13.608;2022-12-10T16:26:49;3.50;;;1.40;;
52188;SDS011;38162;45.926;13.608;2022-12-10T16:29:15;2.23;;;1.23;;
52188;SDS011;38162;45.926;13.608;2022-12-10T16:31:43;1.90;;;1.10;;
52188;SDS011;38162;45.926;13.608;2022-12-10T16:34:08;1.97;;;1.07;;
52188;SDS011;38162;45.926;13.608;2022-12-10T16:36:34;2.87;;;1.57;;
52188;SDS011;38162;45.926;13.608;2022-12-10T16:39:01;2.80;;;1.70;;
52188;SDS011;38162;45.926;13.608;2022-12-10T16:41:27;2.13;;;1.30;;
52188;SDS011;38162;45.926;13.608;2022-12-10T16:43:54;4.80;;;1.47;;
52188;SDS011;38162;45.926;13.608;2022-12-10T16:46:19;5.03;;;1.43;;
52188;SDS011;38162;45.926;13.608;2022-12-10T16:48:45;2.90;;;1.87;;
52188;SDS011;38162;45.926;13.608;2022-12-10T16:51:15;4.27;;;2.20;;
52188;SDS011;38162;45.926;13.608;2022-12-10T16:53:54;3.00;;;1.92;;
52188;SDS011;38162;45.926;13.608;2022-12-10T16:56:20;5.50;;;1.70;;
52188;SDS011;38162;45.926;13.608;2022-12-10T16:58:47;3.67;;;1.90;;